Time;durP1;ratioP1;P1;durP2;ratioP2;P2;SDS_P1;SDS_P2;PMS_P1;PMS_P2;Temp;Humidity;BMP_temperature;BMP_pressure;BME280_temperature;BME280_humidity;BME280_pressure;Samples;Min_cycle;Max_cycle;Signal;HPM_P1;HPM_P2
2023/03/11 00:02:12;;;;;;;3.38;2.90;;;;;;;15.64;38.09;99141.63;7393292;19;20074;-63
2023/03/11 00:04:38;;;;;;;3.75;3.42;;;;;;;14.72;39.52;99137.91;7397729;19;20014;-63
2023/03/11 00:07:06;;;;;;;7.30;4.90;;;;;;;15.82;37.67;99133.28;7398778;19;20344;-63
2023/03/11 00:09:33;;;;;;;1.80;1.80;;;;;;;15.92;36.94;99125.22;7399091;19;20011;-63
2023/03/11 00:12:01;;;;;;;6.10;2.65;;;;;;;15.70;37.35;99125.50;7402592;19;20398;-63
2023/03/11 00:14:27;;;;;;;2.63;2.42;;;;;;;15.47;37.33;99116.56;7399632;19;20035;-63
2023/03/11 00:16:53;;;;;;;2.20;1.55;;;;;;;15.25;37.69;99127.22;7400887;19;20066;-68
2023/03/11 00:19:19;;;;;;;14.52;3.08;;;;;;;15.36;37.29;99127.13;7398850;19;20023;-63
2023/03/11 00:21:46;;;;;;;2.17;1.15;;;;;;;15.52;37.40;99129.03;7400524;19;20464;-62
2023/03/11 00:24:12;;;;;;;3.33;2.45;;;;;;;15.48;37.01;99122.94;7401651;19;20451;-63
2023/03/11 00:26:38;;;;;;;2.33;2.13;;;;;;;15.71;36.81;99122.16;7397453;19;20488;-63
2023/03/11 00:29:04;;;;;;;3.28;1.83;;;;;;;15.78;36.76;99132.03;7396490;19;20502;-63
2023/03/11 00:31:31;;;;;;;2.60;2.45;;;;;;;15.19;37.51;99124.50;7400770;19;20037;-63
2023/03/11 00:33:57;;;;;;;2.40;2.00;;;;;;;15.90;36.82;99125.00;7398839;19;20006;-63
2023/03/11 00:36:33;;;;;;;5.03;2.13;;;;;;;15.87;36.52;99131.69;7402359;19;20010;-63
2023/03/11 00:39:02;;;;;;;1.15;1.15;;;;;;;16.15;36.36;99134.91;7398308;19;20052;-63
2023/03/11 00:41:28;;;;;;;12.15;2.20;;;;;;;16.27;36.10;99130.63;7398276;19;20011;-63
2023/03/11 00:43:54;;;;;;;1.63;1.52;;;;;;;16.23;36.24;99135.78;7401381;19;20455;-63
2023/03/11 00:46:21;;;;;;;2.83;1.35;;;;;;;16.10;36.48;99132.91;7396307;19;20006;-62
2023/03/11 00:48:49;;;;;;;3.30;2.15;;;;;;;14.97;37.69;99128.25;7397373;19;20019;-63
2023/03/11 00:51:15;;;;;;;4.95;2.35;;;;;;;15.36;37.03;99132.72;7397730;19;20019;-63
2023/03/11 00:53:43;;;;;;;3.13;1.75;;;;;;;15.89;36.85;99129.09;7402511;19;20015;-63
2023/03/11 00:56:14;;;;;;;1.70;1.60;;;;;;;16.47;35.86;99132.91;7396342;19;20022;-63
2023/03/11 00:58:42;;;;;;;;;;;;;;;16.85;35.26;99121.63;7396920;19;20011;-63
2023/03/11 01:01:09;;;;;;;2.17;1.95;;;;;;;16.49;35.41;99126.72;7397274;19;19933;-62
2023/03/11 01:03:37;;;;;;;4.53;2.33;;;;;;;16.36;35.38;99127.44;7395498;19;20025;-63
2023/03/11 01:06:04;;;;;;;5.53;2.17;;;;;;;16.54;35.12;99126.69;7397077;19;20015;-63
2023/03/11 01:08:30;;;;;;;3.35;3.03;;;;;;;16.74;35.19;99127.41;7397759;19;20336;-64
2023/03/11 01:10:58;;;;;;;6.22;1.75;;;;;;;16.70;34.83;99119.28;7398462;19;20029;-63
2023/03/11 01:13:25;;;;;;;4.40;1.85;;;;;;;16.53;35.09;99124.41;7397012;19;20014;-63
2023/03/11 01:15:52;;;;;;;2.88;2.67;;;;;;;16.32;35.65;99129.78;7395006;19;20460;-63
2023/03/11 01:18:20;;;;;;;2.10;1.55;;;;;;;16.51;35.15;99122.13;7394901;19;20021;-63
2023/03/11 01:20:46;;;;;;;5.18;3.05;;;;;;;16.49;35.21;99123.94;7396659;19;20034;-63
2023/03/11 01:23:14;;;;;;;1.70;1.60;;;;;;;16.43;35.26;99126.06;7397683;19;20018;-63
2023/03/11 01:25:40;;;;;;;2.17;2.08;;;;;;;16.46;34.70;99125.75;7393946;19;20073;-63
2023/03/11 01:28:07;;;;;;;7.78;1.90;;;;;;;16.28;35.03;99126.53;7394114;19;20015;-63
2023/03/11 01:30:36;;;;;;;3.92;2.05;;;;;;;16.13;35.02;99126.25;7393687;19;20032;-64
2023/03/11 01:33:04;;;;;;;24.17;3.05;;;;;;;16.05;35.09;99125.31;7394276;19;20014;-63
2023/03/11 01:35:31;;;;;;;1.63;1.63;;;;;;;15.74;35.25;99125.97;7395765;19;20017;-63
2023/03/11 01:37:58;;;;;;;3.33;2.17;;;;;;;15.66;35.22;99122.22;7396178;19;20014;-63
2023/03/11 01:40:40;;;;;;;13.45;1.67;;;;;;;15.74;35.03;99131.59;7394575;19;20010;-63
2023/03/11 01:43:43;;;;;;;1.80;1.27;;;;;;;15.38;35.38;99127.34;7390686;19;20464;-64
2023/03/11 01:46:50;;;;;;;8.02;3.17;;;;;;;14.97;35.66;99114.25;7392701;19;20055;-63
2023/03/11 01:49:17;;;;;;;4.55;1.63;;;;;;;15.38;35.70;99121.75;7395613;19;20335;-63
2023/03/11 01:51:47;;;;;;;7.13;1.55;;;;;;;14.40;36.08;99112.41;7397034;19;20018;-63
2023/03/11 01:54:17;;;;;;;2.28;2.13;;;;;;;15.17;35.78;99115.84;7398896;19;20018;-64
2023/03/11 01:56:45;;;;;;;2.00;1.90;;;;;;;15.45;34.93;99113.53;7393130;19;20017;-63
2023/03/11 01:59:16;;;;;;;5.97;2.45;;;;;;;15.43;34.90;99112.50;7391151;19;20507;-64
2023/03/11 02:01:52;;;;;;;1.40;1.30;;;;;;;15.22;35.27;99119.88;7391917;19;20423;-63
2023/03/11 02:04:20;;;;;;;1.13;1.13;;;;;;;14.98;35.35;99121.38;7394682;19;20015;-63
2023/03/11 02:06:47;;;;;;;3.55;2.60;;;;;;;14.89;35.32;99107.69;7393850;19;20010;-63
2023/03/11 02:09:13;;;;;;;7.40;2.72;;;;;;;14.98;35.02;99106.59;7394196;19;20029;-64
2023/03/11 02:11:39;;;;;;;2.25;1.88;;;;;;;15.00;35.14;99110.41;7396678;19;20357;-64
2023/03/11 02:14:08;;;;;;;20.77;4.40;;;;;;;15.03;35.15;99103.72;7395074;19;20010;-64
2023/03/11 02:16:34;;;;;;;1.95;1.50;;;;;;;15.30;34.72;99095.56;7393119;19;20014;-63
2023/03/11 02:19:17;;;;;;;1.27;1.25;;;;;;;15.16;34.80;99097.47;7394193;19;20047;-63
2023/03/11 02:21:43;;;;;;;4.43;2.08;;;;;;;14.88;35.04;99094.19;7394147;19;20011;-63
2023/03/11 02:24:34;;;;;;;1.75;1.75;;;;;;;14.87;34.55;99093.44;7393160;19;20014;-63
2023/03/11 02:27:05;;;;;;;5.82;1.50;;;;;;;14.75;34.83;99102.47;7392331;19;20019;-63
2023/03/11 02:29:32;;;;;;;1.10;1.10;;;;;;;15.03;34.43;99092.50;7394731;19;20031;-63
2023/03/11 02:32:03;;;;;;;1.85;1.75;;;;;;;14.80;34.57;99088.41;7396100;19;20411;-63
2023/03/11 02:34:32;;;;;;;2.33;2.22;;;;;;;13.57;36.35;99087.63;7393125;19;20018;-63
2023/03/11 02:37:03;;;;;;;2.58;0.95;;;;;;;14.43;35.14;99088.19;7392388;19;20049;-63
2023/03/11 02:39:33;;;;;;;21.02;2.70;;;;;;;14.84;35.03;99088.88;7392861;19;20364;-63
2023/03/11 02:42:06;;;;;;;17.05;2.17;;;;;;;15.07;34.93;99095.78;7396024;19;20014;-63
2023/03/11 02:44:33;;;;;;;2.72;2.53;;;;;;;15.02;35.06;99091.00;7394045;19;20043;-58
2023/03/11 02:47:00;;;;;;;5.28;2.55;;;;;;;15.10;34.93;99091.19;7391825;19;20040;-58
2023/03/11 02:49:27;;;;;;;2.47;2.30;;;;;;;15.07;34.84;99084.56;7393329;19;20478;-58
2023/03/11 02:51:53;;;;;;;1.55;1.52;;;;;;;15.08;34.66;99082.53;7396368;19;20010;-58
2023/03/11 02:54:19;;;;;;;1.92;1.83;;;;;;;14.87;34.77;99082.22;7393775;19;20468;-59
2023/03/11 02:56:45;;;;;;;1.42;1.35;;;;;;;14.40;35.48;99080.84;7392211;19;20510;-58
2023/03/11 02:59:12;;;;;;;2.30;2.15;;;;;;;14.16;35.67;99080.72;7394810;19;20020;-58
2023/03/11 03:01:38;;;;;;;1.80;1.80;;;;;;;9.37;42.90;99091.97;7395024;19;20393;-58
2023/03/11 03:04:04;;;;;;;1.30;1.30;;;;;;;12.90;38.05;99086.25;7393940;19;20010;-64
2023/03/11 03:06:32;;;;;;;2.17;1.73;;;;;;;13.62;36.85;99086.09;7393230;19;20019;-63
2023/03/11 03:08:58;;;;;;;2.17;1.98;;;;;;;14.50;35.98;99084.06;7394277;19;20463;-63
2023/03/11 03:11:24;;;;;;;4.22;1.88;;;;;;;14.54;35.98;99090.91;7394763;19;20515;-63
2023/03/11 03:13:50;;;;;;;2.50;1.35;;;;;;;14.62;35.82;99075.03;7393622;19;20026;-64
2023/03/11 03:16:17;;;;;;;1.67;1.60;;;;;;;14.61;35.50;99067.16;7392401;19;20044;-64
2023/03/11 03:18:43;;;;;;;1.35;1.33;;;;;;;14.88;35.26;99071.75;7394216;19;20070;-64
2023/03/11 03:21:09;;;;;;;1.58;1.45;;;;;;;14.73;35.55;99077.75;7393277;19;20025;-63
2023/03/11 03:23:36;;;;;;;1.73;1.63;;;;;;;14.34;35.99;99080.88;7392925;19;20015;-63
2023/03/11 03:26:06;;;;;;;1.33;1.30;;;;;;;14.41;35.71;99076.75;7392996;19;20025;-64
2023/03/11 03:28:35;;;;;;;0.73;0.73;;;;;;;14.32;35.65;99091.06;7393196;19;20484;-64
2023/03/11 03:31:04;;;;;;;0.90;0.90;;;;;;;14.16;35.58;99086.31;7393064;19;20027;-64
2023/03/11 03:33:31;;;;;;;2.33;2.15;;;;;;;14.01;35.54;99092.25;7391537;19;20467;-64
2023/03/11 03:35:57;;;;;;;2.50;1.90;;;;;;;13.98;36.00;99090.50;7392745;19;20011;-63
2023/03/11 03:38:28;;;;;;;2.22;2.13;;;;;;;14.09;35.63;99096.03;7395434;19;20014;-64
2023/03/11 03:40:54;;;;;;;1.33;1.30;;;;;;;13.93;35.84;99102.47;7401322;19;20058;-64
2023/03/11 03:43:21;;;;;;;0.60;0.60;;;;;;;13.92;35.39;99100.97;7399031;19;20010;-64
2023/03/11 03:46:14;;;;;;;1.48;1.48;;;;;;;13.82;35.58;99090.59;7396835;19;20022;-64
2023/03/11 03:48:46;;;;;;;1.00;1.00;;;;;;;13.66;35.88;99090.13;7396882;19;20014;-64
2023/03/11 03:51:13;;;;;;;0.68;0.68;;;;;;;13.29;36.22;99086.19;7399444;19;20018;-63
2023/03/11 03:53:45;;;;;;;2.72;2.53;;;;;;;13.67;35.99;99086.06;7402868;19;20032;-64
2023/03/11 03:56:15;;;;;;;23.40;3.22;;;;;;;13.94;35.84;99073.22;7396937;19;20026;-64
2023/03/11 03:58:43;;;;;;;1.88;1.70;;;;;;;13.86;36.03;99068.69;7397913;19;20025;-64
2023/03/11 04:01:10;;;;;;;2.90;2.80;;;;;;;13.87;36.16;99084.19;7398381;19;20074;-63
2023/03/11 04:03:38;;;;;;;1.40;1.40;;;;;;;11.38;39.37;99080.13;7397386;19;20039;-63
2023/03/11 04:06:17;;;;;;;1.58;1.48;;;;;;;13.74;36.56;99078.41;7397828;19;20014;-64
2023/03/11 04:08:44;;;;;;;8.10;1.83;;;;;;;13.54;36.69;99087.88;7396989;19;20022;-64
2023/03/11 04:11:11;;;;;;;1.85;1.85;;;;;;;13.59;36.38;99096.28;7398252;19;20517;-64
2023/03/11 04:13:38;;;;;;;0.88;0.88;;;;;;;13.66;36.52;99100.56;7398591;19;20006;-64
2023/03/11 04:16:06;;;;;;;2.92;2.80;;;;;;;13.74;36.33;99104.34;7397494;19;20014;-64
2023/03/11 04:18:34;;;;;;;1.75;1.55;;;;;;;13.72;36.22;99111.72;7397215;19;20011;-65
2023/03/11 04:21:04;;;;;;;6.43;2.45;;;;;;;13.81;36.37;99117.03;7398722;19;20021;-64
2023/03/11 04:23:30;;;;;;;0.73;0.73;;;;;;;13.48;36.73;99113.09;7399885;19;20006;-64
2023/03/11 04:25:57;;;;;;;1.42;1.35;;;;;;;10.86;40.91;99122.59;7399654;19;20019;-64
2023/03/11 04:28:23;;;;;;;0.85;0.85;;;;;;;12.72;38.71;99115.47;7396602;19;20018;-63
2023/03/11 04:30:50;;;;;;;1.10;1.10;;;;;;;14.15;36.86;99115.59;7398483;19;20026;-64
2023/03/11 04:33:16;;;;;;;1.88;1.88;;;;;;;13.84;37.43;99116.03;7398324;19;20010;-64
2023/03/11 04:35:43;;;;;;;1.85;1.85;;;;;;;13.94;36.94;99131.22;7396320;19;20015;-64
2023/03/11 04:38:09;;;;;;;0.90;0.90;;;;;;;14.04;36.90;99124.03;7398942;19;20015;-63
2023/03/11 04:40:38;;;;;;;1.58;1.55;;;;;;;14.21;36.62;99119.09;7397881;19;20769;-63
2023/03/11 04:43:05;;;;;;;0.90;0.90;;;;;;;14.24;36.61;99116.06;7393530;19;20010;-64
2023/03/11 04:45:31;;;;;;;2.05;1.08;;;;;;;14.41;36.19;99118.75;7396003;19;20081;-64
2023/03/11 04:47:59;;;;;;;1.05;1.05;;;;;;;14.39;36.23;99121.31;7397611;19;20039;-64
2023/03/11 04:50:26;;;;;;;16.75;2.53;;;;;;;14.38;36.53;99119.78;7394412;19;20396;-64
2023/03/11 04:52:53;;;;;;;0.90;0.90;;;;;;;14.38;36.22;99114.19;7396508;19;20019;-63
2023/03/11 04:55:19;;;;;;;0.85;0.85;;;;;;;14.36;36.22;99122.34;7398120;19;20466;-63
2023/03/11 04:57:46;;;;;;;1.05;1.05;;;;;;;13.35;36.35;99121.25;7396218;19;20015;-64
2023/03/11 05:00:15;;;;;;;1.52;1.42;;;;;;;15.31;35.24;99122.34;7395787;19;20349;-64
2023/03/11 05:02:44;;;;;;;2.33;2.15;;;;;;;15.49;35.24;99130.84;7393132;19;20463;-64
2023/03/11 05:05:12;;;;;;;1.27;1.27;;;;;;;15.31;35.35;99122.34;7393644;19;20010;-63
2023/03/11 05:07:39;;;;;;;0.88;0.88;;;;;;;15.18;35.09;99123.72;7394308;19;20460;-63
2023/03/11 05:10:07;;;;;;;1.08;1.08;;;;;;;15.28;35.30;99123.38;7394329;19;20024;-64
2023/03/11 05:12:36;;;;;;;1.17;1.17;;;;;;;15.17;35.31;99127.84;7398915;19;20345;-64
2023/03/11 05:15:03;;;;;;;3.35;3.00;;;;;;;14.07;35.99;99128.63;7398115;19;20531;-64
2023/03/11 05:17:29;;;;;;;1.02;1.02;;;;;;;14.87;35.98;99138.31;7394975;19;20105;-64
2023/03/11 05:19:56;;;;;;;1.40;1.40;;;;;;;14.87;35.81;99138.31;7397043;19;20011;-64
2023/03/11 05:22:30;;;;;;;0.98;0.80;;;;;;;15.38;35.22;99144.19;7397917;19;20043;-65
2023/03/11 05:24:56;;;;;;;2.03;1.33;;;;;;;15.71;35.06;99141.06;7396587;19;20018;-64
2023/03/11 05:27:23;;;;;;;2.20;2.10;;;;;;;15.38;35.20;99144.94;7395795;19;20014;-64
2023/03/11 05:29:53;;;;;;;1.10;0.90;;;;;;;14.57;36.08;99143.13;7393112;19;20019;-63
2023/03/11 05:32:21;;;;;;;1.50;1.50;;;;;;;14.11;36.30;99138.28;7397367;19;20010;-63
2023/03/11 05:34:48;;;;;;;4.88;2.25;;;;;;;14.60;36.02;99135.69;7394357;19;20343;-64
2023/03/11 05:37:16;;;;;;;1.50;1.45;;;;;;;14.56;36.18;99135.97;7395069;19;20015;-64
2023/03/11 05:39:43;;;;;;;1.35;1.35;;;;;;;14.84;36.07;99142.13;7394995;19;20013;-64
2023/03/11 05:42:11;;;;;;;1.13;1.10;;;;;;;14.68;35.92;99159.84;7397625;19;20364;-64
2023/03/11 05:44:38;;;;;;;2.03;1.92;;;;;;;14.65;35.77;99158.09;7394194;19;20478;-64
2023/03/11 05:47:05;;;;;;;1.08;1.08;;;;;;;14.65;35.91;99155.28;7394030;19;20352;-64
2023/03/11 05:49:32;;;;;;;7.47;3.80;;;;;;;14.32;36.07;99161.09;7393952;19;20007;-64
2023/03/11 05:51:58;;;;;;;2.08;1.85;;;;;;;14.35;36.55;99154.47;7397541;19;20010;-64
2023/03/11 05:54:25;;;;;;;2.50;2.33;;;;;;;14.62;36.00;99169.59;7394206;19;20467;-64
2023/03/11 05:56:52;;;;;;;3.35;1.58;;;;;;;14.96;35.96;99163.22;7394017;19;20027;-64
2023/03/11 05:59:19;;;;;;;1.10;1.10;;;;;;;15.13;35.65;99172.25;7392979;19;20021;-64
2023/03/11 06:01:52;;;;;;;2.50;1.38;;;;;;;14.96;36.19;99171.63;7392905;19;20014;-64
2023/03/11 06:04:18;;;;;;;2.45;2.08;;;;;;;15.13;35.44;99175.03;7393736;19;20023;-64
2023/03/11 06:06:44;;;;;;;0.80;0.80;;;;;;;15.23;35.63;99167.03;7394104;19;20066;-64
2023/03/11 06:09:13;;;;;;;1.48;1.48;;;;;;;15.36;35.35;99172.00;7393335;19;20039;-63
2023/03/11 06:11:40;;;;;;;2.28;1.67;;;;;;;15.33;35.57;99171.03;7397177;19;20503;-64
2023/03/11 06:14:11;;;;;;;1.23;1.23;;;;;;;15.03;35.50;99168.22;7396003;19;20026;-64
2023/03/11 06:16:38;;;;;;;1.08;1.08;;;;;;;15.08;35.70;99159.00;7393454;19;20017;-64
2023/03/11 06:19:05;;;;;;;1.02;1.02;;;;;;;14.88;36.02;99162.22;7394465;19;20031;-64
2023/03/11 06:21:35;;;;;;;0.55;0.55;;;;;;;15.13;35.80;99158.22;7394903;19;20436;-63
2023/03/11 06:24:02;;;;;;;1.50;1.05;;;;;;;15.09;36.04;99152.09;7393047;19;20011;-64
2023/03/11 06:26:29;;;;;;;1.15;1.15;;;;;;;15.15;36.19;99146.47;7391944;19;20015;-64
2023/03/11 06:28:56;;;;;;;2.15;1.80;;;;;;;15.01;35.89;99151.16;7392997;19;20032;-64
2023/03/11 06:31:24;;;;;;;3.80;1.48;;;;;;;14.67;36.60;99146.34;7396598;19;20015;-64
2023/03/11 06:33:52;;;;;;;2.65;1.77;;;;;;;14.93;35.92;99153.03;7394413;19;20007;-63
2023/03/11 06:36:19;;;;;;;1.02;1.02;;;;;;;15.73;35.25;99149.72;7393664;19;20018;-64
2023/03/11 06:38:45;;;;;;;0.85;0.85;;;;;;;15.69;35.28;99155.63;7392364;19;20020;-64
2023/03/11 06:41:12;;;;;;;1.08;0.98;;;;;;;16.26;34.66;99148.03;7391383;19;20010;-64
2023/03/11 06:43:38;;;;;;;1.05;1.05;;;;;;;16.11;34.65;99151.28;7389936;19;20010;-65
2023/03/11 06:46:15;;;;;;;0.68;0.68;;;;;;;17.18;33.26;99143.53;7392046;19;20456;-64
2023/03/11 06:48:44;;;;;;;0.88;0.88;;;;;;;17.45;33.40;99139.47;7393885;19;20496;-64
2023/03/11 06:51:12;;;;;;;0.80;0.80;;;;;;;17.12;33.45;99131.63;7394401;19;20014;-64
2023/03/11 06:53:39;;;;;;;0.70;0.70;;;;;;;17.58;33.12;99131.06;7396568;19;20021;-64
2023/03/11 06:56:11;;;;;;;4.50;2.00;;;;;;;17.85;32.98;99138.19;7391954;19;20025;-64
2023/03/11 06:58:46;;;;;;;6.93;2.78;;;;;;;17.77;33.03;99137.34;7391988;19;20448;-63
2023/03/11 07:01:16;;;;;;;2.25;2.15;;;;;;;13.16;36.89;99153.84;7394321;19;20035;-64
2023/03/11 07:03:45;;;;;;;2.92;1.55;;;;;;;14.03;38.11;99167.34;7392028;19;20345;-58
2023/03/11 07:06:13;;;;;;;0.55;0.55;;;;;;;16.13;35.15;99154.31;7391331;19;20358;-58
2023/03/11 07:08:39;;;;;;;11.00;2.22;;;;;;;15.92;35.30;99145.63;7392639;19;20019;-58
2023/03/11 07:11:11;;;;;;;9.60;1.98;;;;;;;12.97;37.15;99154.84;7392652;19;20447;-61
2023/03/11 07:13:38;;;;;;;0.80;0.80;;;;;;;13.69;37.80;99153.47;7393507;19;20082;-64
2023/03/11 07:16:11;;;;;;;1.52;1.45;;;;;;;12.79;38.76;99150.53;7392086;19;20039;-58
2023/03/11 07:18:39;;;;;;;0.45;0.45;;;;;;;13.91;37.98;99144.22;7393936;19;20010;-64
2023/03/11 07:21:07;;;;;;;0.88;0.88;;;;;;;14.79;37.15;99142.19;7395651;19;20044;-64
2023/03/11 07:23:34;;;;;;;1.05;1.05;;;;;;;12.76;40.30;99149.50;7396641;19;20010;-58
2023/03/11 07:26:00;;;;;;;14.75;1.52;;;;;;;13.11;40.16;99149.00;7396148;19;20007;-58
2023/03/11 07:28:28;;;;;;;1.15;1.15;;;;;;;14.32;37.79;99130.28;7394010;19;20015;-58
2023/03/11 07:30:54;;;;;;;1.15;1.15;;;;;;;13.34;38.81;99136.50;7394267;19;20019;-58
2023/03/11 07:33:22;;;;;;;0.70;0.70;;;;;;;15.68;37.19;99136.50;7393884;19;20003;-64
2023/03/11 07:35:50;;;;;;;0.52;0.52;;;;;;;16.03;36.76;99132.75;7392344;19;20508;-58
2023/03/11 07:38:16;;;;;;;0.90;0.85;;;;;;;16.63;35.65;99128.34;7393290;19;20363;-64
2023/03/11 07:40:43;;;;;;;1.40;1.15;;;;;;;16.42;36.06;99141.41;7392886;19;20383;-64
2023/03/11 07:43:09;;;;;;;0.73;0.73;;;;;;;16.38;36.14;99150.16;7391704;19;20074;-64
2023/03/11 07:45:36;;;;;;;2.08;1.90;;;;;;;16.69;35.34;99148.69;7390784;19;20007;-64
2023/03/11 07:48:02;;;;;;;0.98;0.75;;;;;;;16.45;35.71;99155.16;7390446;19;20014;-58
2023/03/11 07:50:28;;;;;;;3.47;2.47;;;;;;;16.18;35.89;99147.09;7392449;19;20011;-58
2023/03/11 07:52:55;;;;;;;1.67;1.58;;;;;;;16.26;35.58;99145.22;7395190;19;20011;-58
2023/03/11 07:55:21;;;;;;;0.80;0.80;;;;;;;15.62;36.24;99147.03;7392598;19;20011;-59
2023/03/11 07:57:48;;;;;;;1.52;1.48;;;;;;;15.48;36.07;99148.22;7392438;19;20094;-58
2023/03/11 08:00:15;;;;;;;2.00;1.90;;;;;;;15.47;36.30;99155.09;7393193;19;20455;-58
2023/03/11 08:02:41;;;;;;;5.78;2.63;;;;;;;15.80;35.94;99149.88;7389606;19;20365;-58
2023/03/11 08:05:07;;;;;;;3.38;2.92;;;;;;;16.03;36.00;99144.75;7392428;19;20344;-58
2023/03/11 08:07:33;;;;;;;0.80;0.80;;;;;;;16.50;35.18;99154.31;7391076;19;20011;-58
2023/03/11 08:10:00;;;;;;;2.35;2.22;;;;;;;16.39;35.28;99151.69;7389862;19;20007;-58
2023/03/11 08:12:26;;;;;;;1.83;1.75;;;;;;;16.46;35.58;99153.84;7392658;19;20063;-58
2023/03/11 08:14:52;;;;;;;1.38;1.30;;;;;;;17.03;35.30;99151.72;7393214;19;20508;-58
2023/03/11 08:17:19;;;;;;;0.70;0.70;;;;;;;16.05;36.37;99150.59;7392795;19;20011;-58
2023/03/11 08:19:45;;;;;;;0.98;0.60;;;;;;;17.26;35.31;99147.97;7392184;19;20021;-58
2023/03/11 08:22:11;;;;;;;1.20;1.10;;;;;;;17.57;35.30;99146.44;7395948;19;20329;-58
2023/03/11 08:24:37;;;;;;;13.95;3.83;;;;;;;17.19;35.54;99139.44;7395952;19;20014;-58
2023/03/11 08:27:04;;;;;;;1.75;1.65;;;;;;;16.98;35.70;99132.91;7402419;19;20006;-58
2023/03/11 08:29:30;;;;;;;5.15;1.85;;;;;;;17.34;35.94;99139.69;7398194;19;20007;-58
2023/03/11 08:31:56;;;;;;;2.85;1.98;;;;;;;17.12;36.41;99146.47;7395917;19;20025;-58
2023/03/11 08:34:22;;;;;;;6.05;1.95;;;;;;;17.42;36.51;99146.16;7399173;19;20023;-58
2023/03/11 08:36:48;;;;;;;2.72;1.90;;;;;;;17.63;36.58;99151.97;7398204;19;20018;-58
2023/03/11 08:39:14;;;;;;;0.45;0.45;;;;;;;18.11;35.93;99160.69;7397674;19;20071;-58
2023/03/11 08:41:41;;;;;;;2.75;1.35;;;;;;;18.29;36.48;99142.13;7401026;19;20112;-58
2023/03/11 08:44:07;;;;;;;3.10;1.95;;;;;;;18.41;36.46;99139.84;7397879;19;20011;-58
2023/03/11 08:46:37;;;;;;;3.15;2.40;;;;;;;19.20;35.48;99131.78;7396629;19;20014;-58
2023/03/11 08:49:04;;;;;;;8.23;2.90;;;;;;;18.97;36.34;99131.59;7395239;19;20014;-58
2023/03/11 08:51:32;;;;;;;4.78;2.17;;;;;;;19.29;36.29;99129.22;7399961;19;20015;-58
2023/03/11 08:54:00;;;;;;;2.63;2.13;;;;;;;17.28;38.47;99136.22;7401954;19;20009;-58
2023/03/11 08:56:26;;;;;;;0.68;0.68;;;;;;;19.02;36.04;99127.84;7396850;19;20006;-58
2023/03/11 08:58:52;;;;;;;0.80;0.80;;;;;;;19.18;35.80;99129.50;7397381;19;20022;-58
2023/03/11 09:01:19;;;;;;;1.40;1.30;;;;;;;20.01;34.84;99132.16;7398093;19;20017;-58
2023/03/11 09:03:45;;;;;;;1.08;0.98;;;;;;;20.05;34.39;99124.06;7397250;19;20066;-58
2023/03/11 09:06:14;;;;;;;1.75;0.75;;;;;;;19.92;34.76;99129.84;7397958;19;20479;-58
2023/03/11 09:08:41;;;;;;;1.65;0.85;;;;;;;19.91;34.91;99131.13;7397666;19;20011;-58
2023/03/11 09:11:09;;;;;;;3.22;1.00;;;;;;;19.95;33.92;99137.19;7398535;19;20015;-58
2023/03/11 09:13:35;;;;;;;0.82;0.82;;;;;;;20.29;33.77;99137.75;7397205;19;20015;-58
2023/03/11 09:16:01;;;;;;;0.35;0.30;;;;;;;20.48;33.52;99131.78;7396301;19;20010;-58
2023/03/11 09:18:28;;;;;;;1.30;1.20;;;;;;;19.99;34.42;99135.50;7395840;19;20014;-58
2023/03/11 09:20:58;;;;;;;2.30;0.88;;;;;;;20.41;33.82;99130.44;7397425;19;20015;-58
2023/03/11 09:23:24;;;;;;;3.00;1.15;;;;;;;20.42;34.10;99140.44;7398814;19;20003;-58
2023/03/11 09:25:50;;;;;;;2.53;1.10;;;;;;;20.44;34.19;99142.69;7397198;19;20074;-59
2023/03/11 09:28:16;;;;;;;0.55;0.55;;;;;;;20.48;33.72;99132.53;7397076;19;20079;-59
2023/03/11 09:30:42;;;;;;;0.25;0.25;;;;;;;20.59;32.58;99137.84;7395634;19;20013;-59
2023/03/11 09:33:08;;;;;;;1.20;1.20;;;;;;;20.47;32.60;99138.72;7395779;19;20009;-59
2023/03/11 09:35:38;;;;;;;1.08;0.65;;;;;;;20.95;32.17;99146.97;7395759;19;20022;-60
2023/03/11 09:38:04;;;;;;;2.17;1.20;;;;;;;21.03;31.94;99142.09;7395496;19;20025;-59
2023/03/11 09:41:01;;;;;;;1.70;1.63;;;;;;;21.16;31.60;99131.91;7396048;19;20019;-59
2023/03/11 09:43:38;;;;;;;19.27;1.67;;;;;;;20.90;31.59;99136.56;7392725;19;20014;-59
2023/03/11 09:46:29;;;;;;;2.90;0.60;;;;;;;21.54;31.42;99144.72;7396086;19;20047;-59
2023/03/11 09:49:22;;;;;;;1.35;1.08;;;;;;;22.28;31.79;99136.59;7396823;19;20010;-60
2023/03/11 09:52:07;;;;;;;0.80;0.80;;;;;;;21.35;32.07;99137.94;7400082;19;20081;-60
2023/03/11 09:54:39;;;;;;;5.78;0.70;;;;;;;22.66;30.86;99132.81;7395208;19;20341;-59
2023/03/11 09:57:11;;;;;;;0.30;0.30;;;;;;;23.20;29.66;99134.72;7395465;19;20013;-59
2023/03/11 09:59:41;;;;;;;0.75;0.70;;;;;;;21.86;30.19;99136.38;7395984;19;20596;-60
2023/03/11 10:02:14;;;;;;;0.52;0.52;;;;;;;21.29;30.31;99134.56;7398316;19;20350;-59
2023/03/11 10:04:59;;;;;;;0.90;0.90;;;;;;;22.65;29.21;99128.50;7395212;19;20018;-60
2023/03/11 10:07:46;;;;;;;0.35;0.35;;;;;;;20.84;30.43;99136.00;7395079;19;20046;-60
2023/03/11 10:10:14;;;;;;;1.25;1.05;;;;;;;23.62;28.34;99131.91;7391357;19;20463;-60
2023/03/11 10:13:18;;;;;;;2.65;0.90;;;;;;;23.86;27.91;99123.31;7390847;19;20014;-60
2023/03/11 10:16:05;;;;;;;1.77;1.58;;;;;;;22.33;29.23;99126.34;7391064;19;20018;-59
2023/03/11 10:19:03;;;;;;;1.20;1.20;;;;;;;23.74;27.40;99124.38;7388850;19;20010;-59
2023/03/11 10:21:59;;;;;;;1.52;1.45;;;;;;;22.70;28.32;99133.22;7392161;19;19999;-59
2023/03/11 10:24:44;;;;;;;0.85;0.85;;;;;;;22.19;28.59;99134.38;7391506;19;20027;-60
2023/03/11 10:27:20;;;;;;;0.25;0.25;;;;;;;21.31;29.61;99137.56;7392541;19;20634;-60
2023/03/11 10:30:14;;;;;;;0.68;0.68;;;;;;;22.44;28.89;99132.34;7392924;19;20049;-59
2023/03/11 10:32:46;;;;;;;6.18;0.90;;;;;;;23.13;28.32;99127.75;7393613;19;20660;-59
2023/03/11 10:35:21;;;;;;;0.60;0.60;;;;;;;21.77;29.52;99134.09;7394977;19;20507;-59
2023/03/11 10:37:55;;;;;;;1.30;0.70;;;;;;;22.57;28.59;99126.41;7392383;19;20532;-59
2023/03/11 10:40:38;;;;;;;1.55;0.90;;;;;;;22.29;29.12;99118.25;7393147;19;20015;-58
2023/03/11 10:43:16;;;;;;;1.63;0.98;;;;;;;22.22;28.73;99124.69;7392394;19;20667;-59
2023/03/11 10:45:44;;;;;;;1.35;1.25;;;;;;;21.32;29.39;99128.50;7394725;19;20014;-59
2023/03/11 10:48:13;;;;;;;7.75;2.15;;;;;;;22.15;29.16;99121.91;7392566;19;20007;-59
2023/03/11 10:50:51;;;;;;;1.05;0.98;;;;;;;21.75;28.91;99124.66;7390935;19;20015;-59
2023/03/11 10:53:18;;;;;;;2.95;0.65;;;;;;;20.78;29.92;99121.28;7394751;19;20035;-58
2023/03/11 10:55:53;;;;;;;0.95;0.82;;;;;;;20.34;29.98;99119.84;7394054;19;20019;-58
2023/03/11 10:58:22;;;;;;;2.85;1.48;;;;;;;20.60;30.14;99118.78;7394172;19;20014;-58
2023/03/11 11:01:16;;;;;;;3.75;1.83;;;;;;;20.43;30.28;99119.31;7393317;19;20014;-58
2023/03/11 11:03:45;;;;;;;1.17;1.17;;;;;;;20.42;30.36;99120.63;7392608;19;20478;-58
2023/03/11 11:06:24;;;;;;;0.43;0.40;;;;;;;21.04;29.98;99120.97;7392499;19;20011;-58
2023/03/11 11:09:16;;;;;;;2.58;1.42;;;;;;;21.93;29.13;99117.84;7393670;19;20006;-58
2023/03/11 11:12:01;;;;;;;2.58;2.30;;;;;;;21.45;29.47;99114.13;7395581;19;20022;-58
2023/03/11 11:15:00;;;;;;;2.65;1.27;;;;;;;21.64;28.81;99105.22;7392068;19;20039;-58
2023/03/11 11:17:30;;;;;;;0.40;0.30;;;;;;;22.17;28.39;99088.81;7386474;19;20010;-58
2023/03/11 11:19:58;;;;;;;2.30;0.55;;;;;;;20.50;29.99;99092.34;7388901;19;20015;-58
2023/03/11 11:22:25;;;;;;;1.50;1.40;;;;;;;22.09;28.82;99090.91;7390830;19;20014;-58
2023/03/11 11:24:54;;;;;;;6.43;0.98;;;;;;;21.93;29.39;99089.47;7389388;19;20017;-58
2023/03/11 11:27:25;;;;;;;0.60;0.60;;;;;;;21.88;28.74;99093.28;7389736;19;20014;-58
2023/03/11 11:30:07;;;;;;;2.28;1.13;;;;;;;22.77;28.65;99089.81;7390047;19;20011;-58
2023/03/11 11:32:34;;;;;;;1.15;1.05;;;;;;;22.01;29.31;99095.09;7397012;19;20040;-58
2023/03/11 11:35:07;;;;;;;1.35;1.25;;;;;;;22.18;28.85;99086.72;7392091;19;20013;-57
2023/03/11 11:37:36;;;;;;;2.38;1.50;;;;;;;22.29;29.42;99070.03;7393221;19;20137;-57
2023/03/11 11:40:15;;;;;;;0.75;0.75;;;;;;;22.22;29.34;99079.31;7393194;19;20026;-57
2023/03/11 11:42:46;;;;;;;0.75;0.75;;;;;;;21.83;29.74;99075.13;7391532;19;20014;-57
2023/03/11 11:45:22;;;;;;;1.02;1.02;;;;;;;21.91;30.05;99075.13;7390343;19;20014;-57
2023/03/11 11:47:54;;;;;;;1.50;0.93;;;;;;;20.30;31.21;99082.69;7389529;19;20015;-57